createdAt,value
2019-04-29T14:53:02.329Z,28.40
2019-04-29T14:55:31.803Z,28.93
2019-04-29T14:58:01.255Z,28.97
2019-04-29T15:00:50.816Z,29.23
2019-04-29T15:03:24.907Z,27.97
2019-04-29T15:05:54.492Z,29.63
2019-04-29T15:08:24.073Z,29.37
2019-04-29T15:10:54.132Z,31.23
2019-04-29T15:13:25.702Z,27.97
2019-04-29T15:16:09.638Z,28.97
2019-04-29T15:18:48.692Z,30.60
2019-04-29T15:21:15.830Z,28.90
2019-04-29T15:23:45.401Z,32.97
2019-04-29T15:26:14.936Z,36.47
2019-04-29T15:28:53.540Z,34.80
2019-04-29T15:31:23.903Z,27.67
2019-04-29T15:33:53.501Z,23.60
2019-04-29T15:36:23.050Z,24.70
2019-04-29T15:39:08.568Z,21.87
2019-04-29T15:41:29.462Z,23.20
2019-04-29T15:44:06.439Z,21.97
2019-04-29T15:46:25.992Z,21.27
2019-04-29T15:48:55.556Z,20.10
2019-04-29T15:51:25.040Z,19.37
2019-04-29T15:53:54.603Z,17.57
2019-04-29T15:56:28.731Z,17.37
2019-04-29T15:58:59.571Z,17.43
2019-04-29T16:01:28.180Z,18.40
2019-04-29T16:03:59.250Z,17.73
2019-04-29T16:06:39.982Z,17.63
2019-04-29T16:09:10.094Z,17.73
2019-04-29T16:11:41.224Z,18.23
2019-04-29T16:14:12.321Z,18.00
2019-04-29T16:16:41.808Z,17.63
2019-04-29T16:19:11.251Z,16.57
2019-04-29T16:21:41.772Z,17.27
2019-04-29T16:26:42.578Z,17.77
2019-04-29T16:29:15.144Z,17.27
2019-04-29T16:31:43.182Z,16.87
2019-04-29T16:34:12.649Z,17.40
2019-04-29T16:39:13.487Z,18.03
2019-04-29T16:41:44.705Z,17.53
2019-04-29T16:44:34.033Z,16.93
2019-04-29T16:46:47.238Z,18.40
2019-04-29T16:49:16.750Z,19.50
2019-04-29T16:51:47.953Z,16.50
2019-04-29T16:54:20.516Z,18.00
2019-04-29T16:56:48.796Z,18.93
2019-04-29T16:59:18.203Z,17.97
2019-04-29T17:01:47.824Z,17.00
2019-04-29T17:04:17.309Z,22.23
2019-04-29T17:09:31.649Z,27.77
2019-04-29T17:12:02.292Z,44.10
2019-04-29T17:14:31.700Z,29.87
2019-04-29T17:17:03.952Z,24.80
2019-04-29T17:19:35.043Z,28.47
2019-04-29T17:24:37.631Z,17.00
2019-04-29T17:27:14.171Z,33.83
2019-04-29T17:29:55.549Z,19.50
2019-04-29T17:32:44.624Z,16.83
2019-04-29T17:35:10.665Z,16.47
2019-04-29T17:35:15.681Z,18.10
2019-04-29T17:35:16.215Z,18.73
2019-04-29T17:35:17.595Z,19.10
2019-04-29T17:35:17.729Z,26.87
2019-04-29T17:37:40.490Z,16.43
2019-04-29T17:40:11.889Z,15.83
2019-04-29T17:42:43.077Z,14.47
2019-04-29T17:45:27.071Z,13.80
2019-04-29T17:47:59.935Z,13.40
2019-04-29T17:50:38.618Z,14.73
2019-04-29T17:53:08.499Z,13.37
2019-04-29T17:55:42.689Z,14.17
2019-04-29T17:58:19.977Z,14.73
2019-04-29T18:00:57.902Z,15.97
2019-04-29T18:03:27.267Z,13.30
2019-04-29T18:05:58.363Z,14.90
2019-04-29T18:08:44.926Z,14.57
2019-04-29T18:11:15.038Z,13.23
2019-04-29T18:13:45.842Z,12.03
2019-04-29T18:16:22.146Z,12.77
2019-04-29T18:18:57.313Z,12.40
2019-04-29T18:21:25.003Z,13.07
2019-04-29T18:23:59.258Z,13.63
2019-04-29T18:26:35.827Z,14.47
2019-04-29T18:29:07.963Z,15.67
2019-04-29T18:31:36.927Z,20.47
2019-04-29T18:34:06.409Z,20.33
2019-04-29T18:36:36.057Z,26.30
2019-04-29T18:39:09.077Z,46.63
2019-04-29T18:41:38.505Z,43.47
2019-04-29T18:44:08.088Z,32.57
2019-04-29T18:46:37.672Z,23.47
2019-04-29T18:49:07.305Z,136.33
2019-04-29T18:51:36.822Z,42.13
2019-04-29T18:54:06.451Z,30.63
2019-04-29T18:56:36.657Z,25.87
2019-04-29T18:59:07.484Z,23.53
2019-04-29T19:01:36.957Z,21.73
2019-04-29T19:04:16.149Z,24.13
2019-04-29T19:06:41.187Z,22.87
2019-04-29T19:09:19.976Z,23.67
2019-04-29T19:11:43.491Z,24.03
2019-04-29T19:14:15.096Z,22.10
2019-04-29T19:16:46.155Z,23.17
2019-04-29T19:19:15.682Z,23.60
2019-04-29T19:21:48.155Z,25.93
2019-04-29T19:24:19.183Z,22.90
2019-04-29T19:26:55.646Z,23.67
2019-04-29T19:29:21.194Z,26.50
2019-04-29T19:31:50.822Z,25.87
2019-04-29T19:34:20.353Z,22.27
2019-04-29T19:36:50.729Z,24.17
2019-04-29T19:39:21.804Z,27.90
2019-04-29T19:41:52.289Z,24.43
2019-04-29T19:44:21.700Z,26.10
2019-04-29T19:46:51.204Z,29.97
2019-04-29T19:49:20.617Z,26.40
2019-04-29T19:51:50.077Z,30.33
2019-04-29T19:54:24.475Z,28.60
2019-04-29T19:56:55.612Z,26.90
2019-04-29T19:59:22.258Z,29.23
2019-04-29T20:02:02.046Z,30.27
2019-04-29T20:04:31.477Z,31.40
2019-04-29T20:07:06.510Z,33.87
2019-04-29T20:09:33.313Z,29.70
2019-04-29T20:12:11.323Z,31.00
2019-04-29T20:14:37.002Z,28.90
2019-04-29T20:17:14.143Z,28.80
2019-04-29T20:19:45.716Z,30.53
2019-04-29T20:22:15.928Z,29.53
2019-04-29T20:24:49.749Z,31.43
2019-04-29T20:27:16.964Z,33.07
2019-04-29T20:29:46.604Z,32.73
2019-04-29T20:32:16.739Z,33.13
2019-04-29T20:34:47.206Z,35.17
2019-04-29T20:37:19.781Z,37.20
2019-04-29T20:39:52.044Z,33.90
2019-04-29T20:42:19.221Z,32.27
2019-04-29T20:44:49.483Z,35.73
2019-04-29T20:47:22.888Z,36.07
2019-04-29T20:49:50.289Z,41.73
2019-04-29T20:52:39.657Z,41.33
2019-04-29T20:55:09.865Z,39.73
2019-04-29T20:57:39.982Z,42.10
2019-04-29T21:00:10.111Z,41.87
2019-04-29T21:02:39.817Z,42.07
2019-04-29T21:05:19.871Z,41.97
2019-04-29T21:07:41.349Z,47.27
2019-04-29T21:10:11.125Z,45.70
2019-04-29T21:12:42.187Z,47.40
2019-04-29T21:15:16.167Z,45.63
2019-04-29T21:17:46.207Z,56.40
2019-04-29T21:20:15.711Z,50.13
2019-04-29T21:22:45.577Z,46.03
2019-04-29T21:25:15.208Z,45.80
2019-04-29T21:27:46.964Z,47.07
2019-04-29T21:30:16.009Z,44.43
2019-04-29T21:32:45.553Z,43.27
2019-04-29T21:35:26.975Z,44.07
2019-04-29T21:38:17.914Z,46.47
2019-04-29T21:40:49.385Z,48.73
2019-04-29T21:43:20.646Z,46.43
2019-04-29T21:45:50.175Z,50.90
2019-04-29T21:48:25.649Z,48.53
2019-04-29T21:50:50.787Z,47.90
2019-04-29T21:53:20.454Z,43.50
2019-04-29T21:55:49.941Z,44.07
2019-04-29T21:58:19.548Z,44.93
2019-04-29T22:00:50.015Z,44.67
2019-04-29T22:03:19.828Z,45.40
2019-04-29T22:05:53.468Z,41.00
2019-04-29T22:08:27.163Z,40.83
2019-04-29T22:11:04.387Z,39.77
2019-04-29T22:13:30.647Z,38.90
2019-04-29T22:16:00.211Z,41.30
2019-04-29T22:18:29.847Z,34.00
2019-04-29T22:20:59.630Z,34.97
2019-04-29T22:23:29.110Z,37.43
2019-04-29T22:25:59.015Z,29.80
2019-04-29T22:28:28.555Z,32.00
2019-04-29T22:30:58.169Z,32.43
2019-04-29T22:33:29.660Z,33.87
2019-04-29T22:35:59.020Z,36.27
2019-04-29T22:38:28.758Z,37.63
2019-04-29T22:40:59.852Z,40.07
2019-04-29T22:43:33.821Z,42.90
2019-04-29T22:46:09.512Z,32.57
2019-04-29T22:48:40.544Z,31.93
2019-04-29T22:51:10.145Z,33.10
2019-04-29T22:53:39.992Z,33.17
2019-04-29T22:56:14.182Z,33.60
2019-04-29T22:58:43.965Z,36.83
2019-04-29T23:01:13.389Z,42.27
2019-04-29T23:03:42.843Z,39.10
2019-04-29T23:06:12.325Z,39.27
2019-04-29T23:08:41.853Z,42.00
2019-04-29T23:11:11.312Z,39.00
2019-04-29T23:13:40.762Z,38.03
2019-04-29T23:16:10.353Z,36.57
2019-04-29T23:18:42.294Z,30.40
2019-04-29T23:21:16.493Z,38.87
2019-04-29T23:23:59.581Z,35.53
2019-04-29T23:26:29.180Z,37.70
2019-04-29T23:28:59.473Z,31.37
2019-04-29T23:31:29.847Z,29.30
2019-04-29T23:33:59.366Z,29.20
2019-04-29T23:36:28.885Z,33.80
2019-04-29T23:38:58.346Z,29.53
2019-04-29T23:41:32.997Z,31.87
2019-04-29T23:44:00.001Z,33.33
2019-04-29T23:46:34.183Z,36.10
2019-04-29T23:49:03.179Z,36.40
2019-04-29T23:51:36.308Z,36.63
2019-04-29T23:54:07.874Z,39.17
2019-04-29T23:56:38.570Z,37.17
2019-04-29T23:59:18.852Z,36.20
